Villa Hermosa, Puerto Rico
Current Conditions -  °F | °C
As of 6:56 AM on Sunday 21 Dec 2014 (Local Time) from TJSJ Reporting Station
Scattered Clouds Scattered Clouds  
Wind Chill: 74°   Ceiling: Unl
Heat Index: 74°   Visibility: 10mi
Dew Point: 69°   Wind: 3mph
Humidity: 85%   Direction: 140°SE
Pressure: 30.04"   Gusts: NA
Location:  18.2351°N, 66.0374°W
Report Text: TJSJ 211056Z 14003KT 10SM FEW030 SCT049 23/21 A3004 RMK AO2 SLP170 T02330206
Loading
Personal Weather Stations






























Interactive Weather Map New forecast layout! Learn more

10-Day Weather Forecast

Advertisements
Track Severe Weather on mobile